createdAt,value
2023-01-19T00:00:10.694Z,65.10
2023-01-19T00:01:11.923Z,63.49
2023-01-19T00:02:10.708Z,66.06
2023-01-19T00:03:10.650Z,63.16
2023-01-19T00:04:10.639Z,65.58
2023-01-19T00:05:10.605Z,66.39
2023-01-19T00:06:10.659Z,66.23
2023-01-19T00:07:10.615Z,67.35
2023-01-19T00:08:10.562Z,66.55
2023-01-19T00:09:10.558Z,66.23
2023-01-19T00:10:10.827Z,65.42
2023-01-19T00:11:10.575Z,68.00
2023-01-19T00:12:10.585Z,66.23
2023-01-19T00:13:10.545Z,65.58
2023-01-19T00:14:10.542Z,63.49
2023-01-19T00:15:10.499Z,64.29
2023-01-19T00:16:10.592Z,67.35
2023-01-19T00:17:11.479Z,65.58
2023-01-19T00:18:11.124Z,65.42
2023-01-19T00:19:11.474Z,67.19
2023-01-19T00:20:10.471Z,66.55
2023-01-19T00:21:10.458Z,64.78
2023-01-19T00:22:10.459Z,66.39
2023-01-19T00:23:10.420Z,66.71
2023-01-19T00:24:10.404Z,63.16
2023-01-19T00:25:10.424Z,63.65
2023-01-19T00:26:10.382Z,65.42
2023-01-19T00:27:10.439Z,67.19
2023-01-19T00:28:10.470Z,65.26
2023-01-19T00:29:11.457Z,66.55
2023-01-19T00:30:10.376Z,64.29
2023-01-19T00:31:10.390Z,66.55
2023-01-19T00:32:10.355Z,68.48
2023-01-19T00:33:10.352Z,67.84
2023-01-19T00:34:10.521Z,68.48
2023-01-19T00:35:10.298Z,66.55
2023-01-19T00:36:10.273Z,66.55
2023-01-19T00:37:10.303Z,63.81
2023-01-19T00:38:10.275Z,66.71
2023-01-19T00:39:10.250Z,67.03
2023-01-19T00:40:10.255Z,66.71
2023-01-19T00:41:10.225Z,66.39
2023-01-19T00:42:10.279Z,67.84
2023-01-19T00:43:10.227Z,66.55
2023-01-19T00:44:10.218Z,64.13
2023-01-19T00:45:10.179Z,66.71
2023-01-19T00:46:10.221Z,66.87
2023-01-19T00:47:10.156Z,66.23
2023-01-19T00:48:10.163Z,67.84
2023-01-19T00:49:10.174Z,65.42
2023-01-19T00:50:10.232Z,64.29
2023-01-19T00:51:10.107Z,66.06
2023-01-19T00:52:10.136Z,63.16
2023-01-19T00:53:10.089Z,64.78
2023-01-19T00:54:10.138Z,64.78
2023-01-19T00:55:10.078Z,67.84
2023-01-19T00:56:10.078Z,66.55
2023-01-19T00:57:10.040Z,65.74
2023-01-19T00:58:10.045Z,64.29
2023-01-19T00:59:10.036Z,67.03
2023-01-19T01:00:10.068Z,65.42
2023-01-19T01:01:10.077Z,66.87
2023-01-19T01:02:10.171Z,63.81
2023-01-19T01:03:10.065Z,68.48
2023-01-19T01:04:10.130Z,67.35
2023-01-19T01:05:09.967Z,67.84
2023-01-19T01:06:10.236Z,68.32
2023-01-19T01:07:10.193Z,68.48
2023-01-19T01:08:09.933Z,67.03
2023-01-19T01:09:09.926Z,67.19
2023-01-19T01:10:09.924Z,70.58
2023-01-19T01:11:10.896Z,66.87
2023-01-19T01:12:09.874Z,65.26
2023-01-19T01:13:21.070Z,67.84
2023-01-19T01:14:09.952Z,68.16
2023-01-19T01:15:09.885Z,65.10
2023-01-19T01:16:09.857Z,66.87
2023-01-19T01:17:09.856Z,64.78
2023-01-19T01:18:09.812Z,66.55
2023-01-19T01:19:09.792Z,65.74
2023-01-19T01:20:10.864Z,66.06
2023-01-19T01:21:09.783Z,64.45
2023-01-19T01:22:09.769Z,65.90
2023-01-19T01:23:09.782Z,65.74
2023-01-19T01:24:09.812Z,65.26
2023-01-19T01:25:09.725Z,67.51
2023-01-19T01:26:09.752Z,67.51
2023-01-19T01:27:09.689Z,66.06
2023-01-19T01:28:10.700Z,65.74
2023-01-19T01:29:09.690Z,64.29
2023-01-19T01:30:09.695Z,66.55
2023-01-19T01:31:09.732Z,66.55
2023-01-19T01:32:09.636Z,66.23
2023-01-19T01:33:09.634Z,66.23
2023-01-19T01:34:09.656Z,67.35
2023-01-19T01:35:09.600Z,64.78
2023-01-19T01:36:09.639Z,67.35
2023-01-19T01:37:09.599Z,68.32
2023-01-19T01:38:09.589Z,66.87
2023-01-19T01:39:09.580Z,67.84
2023-01-19T01:40:09.555Z,68.64
2023-01-19T01:41:09.546Z,67.84
2023-01-19T01:42:09.575Z,69.61
2023-01-19T01:43:09.521Z,67.84
2023-01-19T01:44:09.537Z,67.03
2023-01-19T01:45:09.505Z,68.00
2023-01-19T01:46:09.567Z,69.45
2023-01-19T01:47:09.553Z,71.06
2023-01-19T01:48:09.491Z,66.39
2023-01-19T01:49:09.468Z,68.96
2023-01-19T01:50:09.467Z,68.80
2023-01-19T01:51:09.460Z,64.78
2023-01-19T01:52:09.435Z,67.19
2023-01-19T01:53:09.697Z,66.71
2023-01-19T01:54:09.404Z,63.97
2023-01-19T01:55:09.407Z,65.58
2023-01-19T01:56:09.422Z,66.87
2023-01-19T01:57:09.402Z,65.74
2023-01-19T01:58:09.384Z,66.39
2023-01-19T01:59:09.381Z,65.74
2023-01-19T02:00:09.327Z,63.16
2023-01-19T02:01:09.420Z,65.26
2023-01-19T02:02:09.344Z,69.29
2023-01-19T02:03:09.379Z,67.84
2023-01-19T02:04:09.303Z,68.00
2023-01-19T02:05:09.325Z,64.61
2023-01-19T02:06:09.287Z,65.90
2023-01-19T02:07:09.271Z,66.71
2023-01-19T02:08:09.294Z,65.42
2023-01-19T02:09:09.262Z,66.23
2023-01-19T02:10:09.264Z,67.84
2023-01-19T02:11:09.255Z,67.19
2023-01-19T02:12:09.235Z,68.00
2023-01-19T02:13:09.213Z,65.42
2023-01-19T02:14:09.212Z,67.03
2023-01-19T02:15:09.185Z,65.74
2023-01-19T02:16:09.165Z,65.58
2023-01-19T02:17:09.152Z,65.90
2023-01-19T02:18:09.160Z,68.96
2023-01-19T02:19:09.514Z,67.84
2023-01-19T02:20:09.111Z,68.80
2023-01-19T02:21:09.154Z,67.35
2023-01-19T02:22:09.135Z,67.51
2023-01-19T02:23:09.093Z,66.71
2023-01-19T02:24:09.149Z,66.87
2023-01-19T02:25:09.085Z,66.71
2023-01-19T02:26:09.097Z,67.35
2023-01-19T02:27:09.068Z,69.29
2023-01-19T02:28:09.355Z,67.03
2023-01-19T02:29:09.027Z,66.87
2023-01-19T02:30:09.034Z,65.74
2023-01-19T02:31:09.016Z,67.35
2023-01-19T02:32:09.012Z,68.00
2023-01-19T02:33:08.998Z,69.13
2023-01-19T02:34:09.953Z,68.16
2023-01-19T02:35:08.975Z,66.55
2023-01-19T02:36:08.961Z,66.87
2023-01-19T02:37:08.952Z,68.00
2023-01-19T02:38:08.914Z,67.68
2023-01-19T02:39:08.955Z,67.35
2023-01-19T02:40:08.942Z,66.23
2023-01-19T02:41:08.892Z,67.19
2023-01-19T02:42:08.877Z,66.39
2023-01-19T02:43:08.875Z,65.74
2023-01-19T02:44:09.219Z,65.58
2023-01-19T02:45:08.892Z,67.03
2023-01-19T02:46:08.934Z,63.81
2023-01-19T02:47:08.819Z,66.23
2023-01-19T02:48:08.858Z,66.23
2023-01-19T02:49:08.796Z,63.81
2023-01-19T02:50:08.803Z,64.29
2023-01-19T02:51:08.835Z,65.58
2023-01-19T02:52:09.786Z,65.26
2023-01-19T02:53:09.506Z,65.90
2023-01-19T02:54:09.381Z,65.74
2023-01-19T02:55:08.754Z,67.35
2023-01-19T02:56:10.267Z,66.55
2023-01-19T02:57:08.707Z,62.84
2023-01-19T02:58:08.730Z,67.35
2023-01-19T02:59:10.220Z,64.29
2023-01-19T03:00:08.674Z,64.45
2023-01-19T03:01:08.842Z,66.55
2023-01-19T03:02:08.797Z,67.84
2023-01-19T03:03:08.731Z,65.58
2023-01-19T03:04:08.635Z,67.03
2023-01-19T03:05:08.634Z,64.13
2023-01-19T03:06:08.637Z,69.61
2023-01-19T03:07:08.623Z,65.58
2023-01-19T03:08:08.635Z,66.39
2023-01-19T03:09:08.597Z,67.03
2023-01-19T03:10:08.550Z,69.45
2023-01-19T03:11:08.586Z,68.96
2023-01-19T03:12:08.560Z,67.35
2023-01-19T03:13:08.561Z,69.61
2023-01-19T03:14:09.194Z,69.77
2023-01-19T03:15:08.515Z,68.64
2023-01-19T03:16:08.599Z,69.13
2023-01-19T03:17:08.502Z,69.29
2023-01-19T03:18:08.514Z,67.35
2023-01-19T03:19:08.469Z,69.93
2023-01-19T03:20:08.457Z,69.29
2023-01-19T03:21:08.472Z,68.80
2023-01-19T03:22:08.445Z,68.16
2023-01-19T03:23:09.021Z,67.19
2023-01-19T03:24:08.451Z,68.80
2023-01-19T03:25:08.411Z,65.58
2023-01-19T03:26:08.418Z,66.55
2023-01-19T03:27:08.424Z,66.23
2023-01-19T03:28:08.366Z,68.16
2023-01-19T03:29:08.349Z,69.29
2023-01-19T03:30:08.374Z,66.87
2023-01-19T03:31:08.471Z,64.45
2023-01-19T03:32:08.350Z,66.23
2023-01-19T03:33:08.296Z,66.23
2023-01-19T03:34:08.322Z,67.19
2023-01-19T03:35:08.279Z,67.68
2023-01-19T03:36:08.419Z,68.16
2023-01-19T03:37:08.278Z,70.42
2023-01-19T03:38:08.243Z,66.87
2023-01-19T03:39:08.279Z,66.55
2023-01-19T03:40:08.237Z,65.90
2023-01-19T03:41:08.259Z,66.39
2023-01-19T03:42:09.243Z,68.32
2023-01-19T03:43:08.198Z,66.87
2023-01-19T03:44:08.202Z,67.35
2023-01-19T03:45:08.219Z,66.87
2023-01-19T03:46:08.209Z,65.58
2023-01-19T03:47:09.167Z,68.00
2023-01-19T03:48:08.144Z,67.19
2023-01-19T03:49:08.123Z,68.64
2023-01-19T03:50:08.144Z,66.55
2023-01-19T03:51:08.131Z,65.58
2023-01-19T03:52:08.130Z,66.71
2023-01-19T03:53:08.102Z,66.71
2023-01-19T03:54:08.074Z,67.35
2023-01-19T03:55:08.062Z,69.77
2023-01-19T03:56:08.053Z,69.61
2023-01-19T03:57:08.079Z,68.96
2023-01-19T03:58:08.109Z,67.84
2023-01-19T03:59:08.007Z,66.06
2023-01-19T04:00:08.071Z,66.87
2023-01-19T04:01:08.062Z,65.58
2023-01-19T04:02:08.039Z,66.71
2023-01-19T04:03:08.037Z,68.32
2023-01-19T04:04:07.968Z,67.19
2023-01-19T04:05:07.943Z,63.16
2023-01-19T04:06:08.263Z,66.55
2023-01-19T04:07:07.935Z,68.64
2023-01-19T04:08:08.717Z,69.29
2023-01-19T04:09:07.947Z,66.55
2023-01-19T04:10:07.940Z,68.32
2023-01-19T04:11:07.883Z,68.32
2023-01-19T04:12:07.880Z,69.77
2023-01-19T04:13:07.891Z,69.77
2023-01-19T04:14:07.876Z,68.96
2023-01-19T04:15:07.872Z,69.77
2023-01-19T04:16:07.878Z,67.51
2023-01-19T04:17:07.837Z,70.25
2023-01-19T04:18:07.807Z,70.25
2023-01-19T04:19:07.859Z,66.71
2023-01-19T04:20:07.797Z,69.29
2023-01-19T04:21:07.776Z,70.42
2023-01-19T04:22:07.766Z,67.51
2023-01-19T04:23:07.755Z,67.35
2023-01-19T04:24:07.767Z,67.03
2023-01-19T04:25:07.725Z,69.45
2023-01-19T04:26:07.712Z,67.35
2023-01-19T04:27:07.700Z,66.55
2023-01-19T04:28:07.690Z,67.51
2023-01-19T04:29:07.694Z,68.96
2023-01-19T04:30:07.712Z,66.87
2023-01-19T04:31:07.724Z,70.25
2023-01-19T04:32:07.658Z,68.80
2023-01-19T04:33:07.631Z,67.03
2023-01-19T04:34:07.670Z,69.13
2023-01-19T04:35:07.678Z,68.96
2023-01-19T04:36:07.623Z,69.13
2023-01-19T04:37:07.603Z,68.48
2023-01-19T04:38:07.568Z,67.35
2023-01-19T04:39:07.595Z,68.96
2023-01-19T04:40:07.572Z,69.29
2023-01-19T04:41:07.608Z,68.16
2023-01-19T04:42:07.559Z,68.16
2023-01-19T04:43:07.523Z,69.29
2023-01-19T04:44:07.517Z,68.80
2023-01-19T04:45:07.519Z,67.68
2023-01-19T04:46:07.597Z,68.48
2023-01-19T04:47:07.488Z,68.64
2023-01-19T04:48:07.503Z,72.67
2023-01-19T04:49:07.474Z,69.77
2023-01-19T04:50:07.448Z,67.68
2023-01-19T04:51:07.442Z,69.61
2023-01-19T04:52:07.478Z,68.80
2023-01-19T04:53:07.415Z,66.39
2023-01-19T04:54:07.421Z,69.29
2023-01-19T04:55:07.418Z,67.68
2023-01-19T04:56:07.411Z,68.00
2023-01-19T04:57:07.438Z,66.39
2023-01-19T04:58:07.379Z,67.19
2023-01-19T04:59:07.391Z,67.19
2023-01-19T05:00:07.352Z,68.80
2023-01-19T05:01:07.353Z,68.48
2023-01-19T05:02:07.346Z,68.00
2023-01-19T05:03:07.451Z,68.96
2023-01-19T05:04:07.299Z,68.48
2023-01-19T05:05:07.306Z,70.09
2023-01-19T05:06:07.313Z,71.06
2023-01-19T05:07:07.268Z,70.25
2023-01-19T05:08:07.276Z,69.77
2023-01-19T05:09:07.249Z,69.29
2023-01-19T05:10:07.233Z,69.45
2023-01-19T05:11:07.209Z,68.48
2023-01-19T05:12:08.232Z,68.48
2023-01-19T05:13:07.309Z,70.09
2023-01-19T05:14:07.220Z,68.64
2023-01-19T05:15:07.188Z,70.58
2023-01-19T05:16:07.225Z,69.77
2023-01-19T05:17:07.152Z,70.09
2023-01-19T05:18:07.156Z,72.03
2023-01-19T05:19:07.141Z,69.29
2023-01-19T05:20:08.134Z,70.90
2023-01-19T05:21:07.106Z,69.13
2023-01-19T05:22:07.144Z,69.13
2023-01-19T05:23:07.090Z,68.48
2023-01-19T05:24:07.186Z,68.80
2023-01-19T05:25:07.074Z,70.58
2023-01-19T05:26:08.874Z,69.77
2023-01-19T05:27:07.061Z,69.45
2023-01-19T05:28:07.038Z,70.09
2023-01-19T05:29:07.063Z,70.25
2023-01-19T05:30:07.010Z,69.45
2023-01-19T05:31:07.152Z,68.64
2023-01-19T05:32:07.072Z,71.87
2023-01-19T05:33:06.985Z,70.74
2023-01-19T05:34:07.032Z,70.74
2023-01-19T05:35:06.976Z,69.29
2023-01-19T05:36:06.936Z,71.38
2023-01-19T05:37:06.916Z,68.80
2023-01-19T05:38:06.930Z,72.35
2023-01-19T05:39:06.899Z,71.54
2023-01-19T05:40:06.954Z,72.19
2023-01-19T05:41:06.895Z,72.35
2023-01-19T05:42:06.876Z,72.99
2023-01-19T05:43:06.882Z,71.54
2023-01-19T05:44:06.892Z,72.51
2023-01-19T05:45:06.898Z,71.70
2023-01-19T05:46:06.958Z,71.70
2023-01-19T05:47:06.820Z,72.03
2023-01-19T05:48:08.224Z,72.03
2023-01-19T05:49:06.813Z,71.87
2023-01-19T05:50:06.790Z,70.42
2023-01-19T05:51:06.808Z,70.09
2023-01-19T05:52:06.780Z,71.06
2023-01-19T05:53:06.755Z,71.06
2023-01-19T05:54:06.746Z,70.90
2023-01-19T05:55:06.762Z,71.06
2023-01-19T05:56:06.771Z,71.54
2023-01-19T05:57:06.754Z,71.22
2023-01-19T05:58:06.715Z,71.22
2023-01-19T05:59:06.672Z,70.58
2023-01-19T06:00:06.681Z,69.13
2023-01-19T06:01:06.781Z,69.45
2023-01-19T06:02:06.802Z,69.13
2023-01-19T06:03:06.726Z,69.45
2023-01-19T06:04:06.673Z,70.58
2023-01-19T06:05:06.615Z,70.09
2023-01-19T06:06:06.619Z,70.09
2023-01-19T06:07:06.672Z,71.54
2023-01-19T06:08:06.994Z,72.19
2023-01-19T06:09:06.581Z,71.22
2023-01-19T06:10:06.576Z,70.74
2023-01-19T06:11:06.540Z,70.25
2023-01-19T06:12:06.685Z,67.84
2023-01-19T06:13:06.561Z,71.06
2023-01-19T06:14:06.560Z,69.45
2023-01-19T06:15:06.895Z,70.58
2023-01-19T06:16:06.593Z,69.29
2023-01-19T06:17:07.136Z,69.13
2023-01-19T06:18:06.528Z,71.22
2023-01-19T06:19:06.495Z,69.29
2023-01-19T06:20:06.465Z,70.42
2023-01-19T06:21:06.456Z,70.42
2023-01-19T06:22:06.449Z,70.90
2023-01-19T06:23:06.463Z,70.25
2023-01-19T06:24:06.420Z,70.25
2023-01-19T06:25:06.397Z,72.67
2023-01-19T06:26:06.416Z,71.70
2023-01-19T06:27:06.443Z,71.70
2023-01-19T06:28:06.387Z,72.51
2023-01-19T06:29:06.392Z,71.87
2023-01-19T06:30:06.332Z,71.54
2023-01-19T06:31:06.398Z,72.67
2023-01-19T06:32:06.386Z,70.42
2023-01-19T06:33:06.315Z,70.42
2023-01-19T06:34:06.297Z,71.54
2023-01-19T06:35:06.331Z,71.38
2023-01-19T06:36:06.274Z,71.06
2023-01-19T06:37:06.309Z,71.54
2023-01-19T06:38:06.309Z,72.03
2023-01-19T06:39:06.241Z,70.42
2023-01-19T06:40:06.235Z,69.45
2023-01-19T06:41:06.246Z,69.77
2023-01-19T06:42:06.240Z,70.90
2023-01-19T06:43:06.221Z,70.90
2023-01-19T06:44:06.221Z,70.90
2023-01-19T06:45:06.195Z,70.74
2023-01-19T06:46:06.235Z,72.03
2023-01-19T06:47:15.010Z,70.42
2023-01-19T06:48:07.198Z,70.90
2023-01-19T06:49:06.161Z,70.42
2023-01-19T06:50:06.134Z,71.54
2023-01-19T06:51:06.112Z,72.19
2023-01-19T06:52:06.126Z,71.22
2023-01-19T06:53:06.118Z,70.42
2023-01-19T06:54:06.093Z,70.90
2023-01-19T06:55:06.102Z,69.29
2023-01-19T06:56:06.071Z,70.58
2023-01-19T06:57:06.049Z,73.48
2023-01-19T06:58:06.095Z,73.48
2023-01-19T06:59:06.034Z,73.48
2023-01-19T07:00:06.029Z,71.06
2023-01-19T07:01:06.129Z,71.06
2023-01-19T07:02:06.068Z,70.74
2023-01-19T07:03:06.784Z,70.74
2023-01-19T07:04:06.011Z,70.25
2023-01-19T07:05:05.964Z,72.03
2023-01-19T07:06:05.967Z,72.99
2023-01-19T07:07:05.942Z,71.22
2023-01-19T07:08:05.935Z,70.74
2023-01-19T07:09:05.978Z,71.87
2023-01-19T07:10:05.929Z,71.38
2023-01-19T07:11:24.857Z,70.90
2023-01-19T07:12:07.892Z,70.74
2023-01-19T07:13:05.879Z,70.25
2023-01-19T07:14:05.948Z,72.03
2023-01-19T07:15:05.884Z,70.09
2023-01-19T07:16:07.339Z,70.42
2023-01-19T07:17:05.865Z,70.74
2023-01-19T07:18:05.840Z,72.35
2023-01-19T07:19:05.830Z,72.19
2023-01-19T07:20:05.845Z,71.54
2023-01-19T07:21:05.832Z,71.06
2023-01-19T07:22:06.283Z,72.03
2023-01-19T07:23:05.797Z,70.42
2023-01-19T07:24:05.767Z,70.25
2023-01-19T07:25:05.840Z,71.38
2023-01-19T07:26:05.763Z,69.61
2023-01-19T07:27:05.734Z,68.80
2023-01-19T07:28:05.744Z,71.70
2023-01-19T07:29:05.719Z,70.74
2023-01-19T07:30:05.791Z,69.77
2023-01-19T07:31:05.779Z,69.77
2023-01-19T07:32:05.689Z,70.42
2023-01-19T07:33:05.666Z,68.16
2023-01-19T07:34:05.702Z,69.61
2023-01-19T07:35:05.637Z,69.93
2023-01-19T07:36:05.703Z,71.22
2023-01-19T07:37:05.627Z,70.58
2023-01-19T07:38:05.709Z,71.87
2023-01-19T07:39:05.671Z,71.38
2023-01-19T07:40:05.585Z,72.51
2023-01-19T07:41:05.668Z,71.70
2023-01-19T07:42:05.568Z,71.06
2023-01-19T07:43:05.555Z,71.38
2023-01-19T07:44:05.608Z,70.58
2023-01-19T07:45:05.547Z,70.58
2023-01-19T07:46:05.584Z,72.35
2023-01-19T07:47:05.539Z,71.22
2023-01-19T07:48:05.499Z,70.90
2023-01-19T07:49:05.484Z,69.29
2023-01-19T07:50:05.530Z,71.22
2023-01-19T07:51:05.573Z,72.67
2023-01-19T07:52:05.535Z,72.03
2023-01-19T07:53:05.470Z,71.38
2023-01-19T07:54:05.475Z,67.68
2023-01-19T07:55:05.447Z,71.22
2023-01-19T07:56:05.406Z,71.22
2023-01-19T07:57:05.459Z,73.15
2023-01-19T07:58:05.401Z,71.38
2023-01-19T07:59:05.425Z,72.67
2023-01-19T08:00:05.370Z,71.54
2023-01-19T08:01:05.424Z,72.51
2023-01-19T08:02:05.519Z,70.90
2023-01-19T08:03:05.543Z,72.35
2023-01-19T08:04:05.360Z,72.03
2023-01-19T08:05:05.308Z,73.96
2023-01-19T08:06:05.339Z,72.19
2023-01-19T08:07:05.332Z,72.67
2023-01-19T08:08:05.299Z,77.02
2023-01-19T08:09:05.270Z,71.38
2023-01-19T08:10:05.242Z,73.15
2023-01-19T08:11:05.245Z,71.70
2023-01-19T08:12:05.353Z,71.54
2023-01-19T08:13:05.225Z,73.96
2023-01-19T08:14:07.776Z,72.51
2023-01-19T08:15:06.410Z,70.74
2023-01-19T08:16:05.257Z,71.22
2023-01-19T08:17:05.187Z,72.51
2023-01-19T08:18:05.185Z,74.12
2023-01-19T08:19:05.185Z,71.54
2023-01-19T08:20:05.151Z,72.83
2023-01-19T08:21:05.124Z,71.87
2023-01-19T08:22:05.121Z,71.54
2023-01-19T08:23:05.231Z,71.22
2023-01-19T08:24:05.280Z,71.38
2023-01-19T08:25:05.098Z,72.67
2023-01-19T08:26:05.081Z,72.19
2023-01-19T08:27:05.114Z,73.64
2023-01-19T08:28:05.034Z,71.70
2023-01-19T08:29:05.060Z,71.54
2023-01-19T08:30:05.102Z,73.80
2023-01-19T08:31:18.492Z,72.83
2023-01-19T08:32:06.137Z,71.54
2023-01-19T08:33:05.056Z,72.67
2023-01-19T08:34:04.979Z,71.87
2023-01-19T08:35:05.013Z,71.87
2023-01-19T08:36:04.983Z,71.54
2023-01-19T08:37:04.933Z,71.38
2023-01-19T08:38:04.938Z,73.15
2023-01-19T08:39:04.919Z,72.99
2023-01-19T08:40:04.928Z,73.80
2023-01-19T08:41:04.922Z,72.19
2023-01-19T08:42:04.912Z,72.67
2023-01-19T08:43:04.876Z,73.64
2023-01-19T08:44:04.864Z,74.93
2023-01-19T08:45:04.876Z,71.38
2023-01-19T08:46:04.896Z,71.87
2023-01-19T08:47:04.864Z,72.83
2023-01-19T08:48:04.877Z,72.35
2023-01-19T08:49:04.829Z,69.77
2023-01-19T08:50:04.805Z,72.19
2023-01-19T08:51:04.841Z,74.60
2023-01-19T08:52:04.771Z,75.73
2023-01-19T08:53:04.796Z,72.99
2023-01-19T08:54:04.763Z,72.03
2023-01-19T08:55:04.730Z,72.03
2023-01-19T08:56:04.767Z,71.38
2023-01-19T08:57:04.787Z,71.06
2023-01-19T08:58:04.764Z,72.03
2023-01-19T08:59:09.843Z,72.67
2023-01-19T09:00:05.679Z,71.22
2023-01-19T09:01:04.696Z,71.06
2023-01-19T09:02:04.869Z,72.51
2023-01-19T09:03:05.226Z,72.83
2023-01-19T09:04:04.646Z,72.35
2023-01-19T09:05:04.675Z,72.67
2023-01-19T09:06:04.630Z,70.42
2023-01-19T09:08:04.631Z,71.70
2023-01-19T09:09:04.590Z,72.99
2023-01-19T09:10:04.625Z,71.38
2023-01-19T09:11:04.637Z,70.25
2023-01-19T09:12:04.559Z,72.03
2023-01-19T09:13:04.580Z,71.87
2023-01-19T09:14:04.571Z,73.48
2023-01-19T09:15:04.538Z,71.38
2023-01-19T09:16:05.637Z,71.06
2023-01-19T09:17:04.509Z,71.06
2023-01-19T09:18:04.531Z,68.00
2023-01-19T09:19:04.520Z,69.77
2023-01-19T09:20:04.513Z,75.09
2023-01-19T09:21:04.469Z,70.09
2023-01-19T09:22:04.447Z,70.42
2023-01-19T09:23:04.460Z,69.93
2023-01-19T09:24:04.493Z,69.93
2023-01-19T09:25:04.423Z,69.77
2023-01-19T09:26:04.421Z,69.61
2023-01-19T09:27:04.440Z,69.61
2023-01-19T09:28:04.387Z,69.45
2023-01-19T09:29:04.432Z,70.58
2023-01-19T09:30:04.378Z,71.87
2023-01-19T09:31:04.480Z,70.09
2023-01-19T09:32:04.336Z,70.74
2023-01-19T09:33:04.508Z,69.29
2023-01-19T09:34:04.329Z,70.09
2023-01-19T09:35:04.320Z,71.06
2023-01-19T09:36:04.312Z,68.80
2023-01-19T09:37:04.282Z,71.38
2023-01-19T09:38:04.351Z,69.61
2023-01-19T09:39:04.264Z,68.48
2023-01-19T09:40:04.327Z,68.64
2023-01-19T09:41:04.268Z,70.09
2023-01-19T09:42:04.233Z,69.61
2023-01-19T09:43:04.239Z,68.64
2023-01-19T09:44:04.207Z,67.51
2023-01-19T09:45:05.270Z,68.96
2023-01-19T09:46:04.273Z,69.93
2023-01-19T09:47:04.199Z,71.70
2023-01-19T09:48:04.170Z,69.29
2023-01-19T09:49:04.179Z,71.70
2023-01-19T09:50:04.166Z,68.48
2023-01-19T09:51:04.141Z,69.77
2023-01-19T09:52:04.134Z,69.77
2023-01-19T09:53:04.111Z,70.25
2023-01-19T09:54:04.130Z,70.74
2023-01-19T09:55:04.099Z,71.38
2023-01-19T09:56:04.104Z,70.09
2023-01-19T09:57:04.482Z,70.42
2023-01-19T09:58:04.294Z,70.90
2023-01-19T09:59:04.045Z,71.38
2023-01-19T10:00:04.041Z,71.54
2023-01-19T10:01:04.210Z,73.15
2023-01-19T10:02:03.994Z,68.80
2023-01-19T10:03:04.304Z,73.15
2023-01-19T10:04:03.983Z,71.54
2023-01-19T10:05:03.952Z,70.90
2023-01-19T10:06:04.357Z,72.99
2023-01-19T10:07:03.941Z,71.38
2023-01-19T10:08:03.989Z,71.70
2023-01-19T10:09:03.933Z,71.87
2023-01-19T10:10:03.927Z,70.42
2023-01-19T10:11:03.918Z,69.45
2023-01-19T10:12:03.953Z,72.35
2023-01-19T10:13:04.038Z,70.09
2023-01-19T10:14:03.877Z,71.54
2023-01-19T10:15:03.870Z,70.25
2023-01-19T10:16:03.889Z,69.29
2023-01-19T10:17:03.887Z,70.74
2023-01-19T10:18:03.981Z,69.61
2023-01-19T10:19:03.811Z,69.45
2023-01-19T10:20:03.793Z,69.93
2023-01-19T10:21:05.501Z,70.90
2023-01-19T10:22:04.824Z,68.00
2023-01-19T10:23:04.261Z,67.68
2023-01-19T10:24:05.772Z,70.09
2023-01-19T10:25:04.775Z,69.93
2023-01-19T10:26:03.771Z,69.77
2023-01-19T10:27:03.727Z,70.74
2023-01-19T10:28:03.793Z,71.54
2023-01-19T10:29:03.713Z,71.22
2023-01-19T10:30:03.682Z,70.25
2023-01-19T10:31:03.850Z,70.09
2023-01-19T10:32:03.886Z,71.87
2023-01-19T10:33:03.969Z,69.93
2023-01-19T10:34:03.648Z,68.00
2023-01-19T10:35:04.641Z,69.45
2023-01-19T10:36:03.610Z,71.54
2023-01-19T10:37:03.612Z,69.45
2023-01-19T10:38:03.637Z,69.93
2023-01-19T10:39:03.622Z,68.64
2023-01-19T10:40:03.615Z,68.64
2023-01-19T10:41:03.587Z,70.42
2023-01-19T10:42:03.655Z,69.61
2023-01-19T10:43:04.113Z,69.77
2023-01-19T10:44:03.599Z,69.45
2023-01-19T10:45:03.555Z,68.64
2023-01-19T10:46:03.653Z,71.06
2023-01-19T10:47:03.489Z,68.16
2023-01-19T10:48:03.534Z,68.48
2023-01-19T10:49:03.528Z,69.45
2023-01-19T10:50:04.522Z,70.09
2023-01-19T10:51:03.512Z,68.32
2023-01-19T10:52:04.175Z,68.80
2023-01-19T10:53:04.024Z,69.61
2023-01-19T10:54:03.536Z,68.80
2023-01-19T10:55:03.457Z,67.68
2023-01-19T10:56:03.420Z,69.45
2023-01-19T10:57:03.545Z,70.25
2023-01-19T10:58:03.449Z,69.77
2023-01-19T10:59:03.479Z,66.87
2023-01-19T11:00:03.386Z,66.39
2023-01-19T11:01:04.060Z,69.13
2023-01-19T11:02:03.541Z,68.16
2023-01-19T11:03:03.946Z,67.19
2023-01-19T11:04:03.356Z,67.84
2023-01-19T11:05:03.373Z,68.80
2023-01-19T11:06:03.311Z,69.29
2023-01-19T11:07:03.342Z,68.64
2023-01-19T11:08:03.298Z,67.84
2023-01-19T11:09:03.266Z,67.84
2023-01-19T11:10:03.298Z,68.16
2023-01-19T11:11:03.260Z,69.93
2023-01-19T11:12:03.231Z,70.90
2023-01-19T11:13:03.824Z,68.96
2023-01-19T11:14:03.251Z,69.45
2023-01-19T11:15:03.249Z,68.80
2023-01-19T11:16:04.239Z,69.61
2023-01-19T11:17:03.285Z,68.80
2023-01-19T11:18:03.333Z,71.54
2023-01-19T11:19:03.186Z,70.74
2023-01-19T11:20:03.147Z,69.13
2023-01-19T11:21:03.200Z,68.00
2023-01-19T11:22:03.125Z,68.32
2023-01-19T11:23:03.405Z,69.13
2023-01-19T11:24:03.138Z,70.58
2023-01-19T11:25:03.099Z,68.64
2023-01-19T11:26:03.118Z,69.13
2023-01-19T11:27:03.114Z,69.45
2023-01-19T11:28:03.076Z,70.42
2023-01-19T11:29:03.075Z,67.84
2023-01-19T11:30:03.040Z,68.96
2023-01-19T11:31:03.099Z,70.42
2023-01-19T11:32:03.146Z,69.61
2023-01-19T11:33:03.282Z,68.00
2023-01-19T11:34:02.998Z,71.06
2023-01-19T11:35:03.014Z,70.42
2023-01-19T11:36:02.977Z,67.19
2023-01-19T11:37:03.016Z,71.22
2023-01-19T11:38:02.951Z,68.64
2023-01-19T11:39:02.956Z,69.29
2023-01-19T11:40:02.952Z,69.13
2023-01-19T11:41:02.935Z,68.64
2023-01-19T11:42:02.929Z,68.64
2023-01-19T11:43:03.310Z,69.29
2023-01-19T11:44:02.920Z,69.29
2023-01-19T11:45:02.907Z,67.35
2023-01-19T11:46:02.943Z,67.03
2023-01-19T11:47:02.881Z,68.80
2023-01-19T11:48:03.360Z,69.61
2023-01-19T11:49:03.005Z,67.68
2023-01-19T11:50:02.829Z,69.45
2023-01-19T11:51:02.824Z,68.32
2023-01-19T11:52:02.817Z,68.16
2023-01-19T11:53:02.792Z,68.80
2023-01-19T11:54:02.812Z,67.35
2023-01-19T11:55:02.776Z,69.13
2023-01-19T11:56:02.791Z,68.64
2023-01-19T11:57:02.753Z,69.29
2023-01-19T11:58:03.192Z,68.64
2023-01-19T11:59:02.873Z,69.45
2023-01-19T12:00:02.730Z,67.51
2023-01-19T12:01:02.755Z,67.03
2023-01-19T12:02:02.772Z,67.03
2023-01-19T12:03:02.722Z,67.19
2023-01-19T12:04:02.681Z,67.68
2023-01-19T12:05:02.664Z,68.80
2023-01-19T12:06:02.683Z,67.84
2023-01-19T12:07:02.686Z,68.32
2023-01-19T12:08:05.447Z,67.68
2023-01-19T12:09:03.655Z,66.23
2023-01-19T12:10:02.620Z,66.55
2023-01-19T12:11:02.609Z,67.68
2023-01-19T12:12:02.601Z,69.45
2023-01-19T12:13:02.628Z,68.48
2023-01-19T12:14:02.588Z,67.84
2023-01-19T12:15:02.555Z,68.32
2023-01-19T12:16:02.534Z,67.35
2023-01-19T12:17:02.537Z,66.06
2023-01-19T12:18:02.905Z,66.55
2023-01-19T12:19:02.518Z,64.94
2023-01-19T12:20:02.492Z,65.90
2023-01-19T12:21:04.185Z,67.03
2023-01-19T12:22:03.466Z,67.68
2023-01-19T12:23:02.444Z,65.26
2023-01-19T12:24:02.540Z,64.45
2023-01-19T12:25:02.449Z,66.06
2023-01-19T12:26:02.450Z,67.68
2023-01-19T12:27:02.419Z,67.03
2023-01-19T12:28:02.410Z,65.90
2023-01-19T12:29:02.440Z,65.90
2023-01-19T12:30:02.423Z,65.74
2023-01-19T12:31:02.521Z,66.39
2023-01-19T12:32:02.374Z,66.87
2023-01-19T12:33:02.366Z,62.04
2023-01-19T12:34:02.398Z,64.29
2023-01-19T12:35:02.338Z,60.75
2023-01-19T12:36:02.308Z,63.49
2023-01-19T12:37:02.307Z,63.33
2023-01-19T12:38:02.288Z,64.94
2023-01-19T12:39:02.286Z,62.52
2023-01-19T12:40:02.322Z,64.61
2023-01-19T12:41:02.267Z,61.39
2023-01-19T12:42:02.274Z,62.36
2023-01-19T12:43:02.230Z,63.33
2023-01-19T12:44:02.372Z,62.20
2023-01-19T12:45:02.251Z,60.42
2023-01-19T12:46:02.202Z,67.19
2023-01-19T12:47:02.199Z,58.33
2023-01-19T12:48:02.207Z,59.78
2023-01-19T12:49:02.187Z,60.26
2023-01-19T12:50:02.145Z,60.42
2023-01-19T12:51:02.305Z,60.59
2023-01-19T12:52:02.139Z,61.07
2023-01-19T12:53:02.134Z,59.30